Merritt, North Carolina
Current Conditions -  °F | °C
As of 6:49 AM on Tuesday 21 Oct 2014 (Local Time) from KNBT Reporting Station
Haze Haze  
Wind Chill: 64°   Ceiling: Unl
Heat Index: 64°   Visibility: 2mi
Dew Point: 61°   Wind: 3mph
Humidity: 90%   Direction: 210°SSW
Pressure: 29.94"   Gusts: NA
Location:  35.1°N, 76.71°W
Report Text: KNBT 211049Z AUTO 21003KT 2SM BR CLR 18/16 A2994 RMK AO2 T01780161 PNO
Loading
Personal Weather Stations






























Interactive Weather Map
Tropical Storm Tracking
New forecast layout! Learn more

10-Day Weather Forecast

Advertisements
Track Severe Weather on mobile